Terminal Aerodrome Forecast
Issued by NWS Brownsville, TX

Home | Current Version | Previous Version | Text Only | Print | Product List | Glossary On
Versions: 1 2 3 4 5 6 7 8 9 10 11 12 13 14 15 16 17
000
FTUS44 KBRO 242323
TAFHRL
TAF
KHRL 242323Z 2500/2524 11012KT P6SM FEW050 SCT060
     FM250200 VRB03KT P6SM SCT250
      TEMPO 2508/2512 BKN015
     FM251300 15007KT P6SM SCT030
     FM252000 11011KT P6SM FEW050 SCT250=

USA.gov is the U.S. government's official web portal to all federal, state and local government web resources and services.